createdAt,value
2023-05-06T04:42:44.196Z,14.43
2023-05-06T04:45:18.005Z,15.25
2023-05-06T04:47:48.384Z,15.48
2023-05-06T04:50:16.561Z,15.20
2023-05-06T04:52:43.537Z,16.05
2023-05-06T04:55:11.574Z,15.38
2023-05-06T04:57:42.931Z,15.13
2023-05-06T05:00:10.945Z,15.05
2023-05-06T05:02:38.364Z,16.08
2023-05-06T05:05:07.252Z,16.85
2023-05-06T05:07:34.635Z,16.00
2023-05-06T05:10:01.496Z,15.65
2023-05-06T05:12:28.586Z,16.38
2023-05-06T05:14:55.419Z,14.25
2023-05-06T05:17:22.575Z,14.63
2023-05-06T05:19:50.598Z,13.73
2023-05-06T05:22:17.896Z,13.95
2023-05-06T05:24:44.872Z,14.93
2023-05-06T05:27:12.087Z,12.70
2023-05-06T05:29:39.947Z,15.35
2023-05-06T05:32:09.335Z,14.60
2023-05-06T05:34:36.337Z,13.93
2023-05-06T05:37:03.165Z,16.50
2023-05-06T05:39:30.587Z,15.52
2023-05-06T05:41:57.999Z,14.50
2023-05-06T05:44:25.474Z,14.50
2023-05-06T05:46:52.763Z,14.75
2023-05-06T05:49:20.826Z,15.55
2023-05-06T05:51:54.953Z,16.75
2023-05-06T05:54:22.503Z,17.92
2023-05-06T05:56:50.475Z,16.27
2023-05-06T05:59:19.414Z,16.83
2023-05-06T06:01:48.471Z,16.55
2023-05-06T06:04:15.988Z,18.05
2023-05-06T06:06:46.036Z,18.20
2023-05-06T06:09:13.960Z,18.33
2023-05-06T06:11:43.483Z,17.95
2023-05-06T06:14:13.438Z,16.48
2023-05-06T06:16:45.397Z,17.42
2023-05-06T06:19:14.701Z,17.17
2023-05-06T06:21:42.772Z,16.48
2023-05-06T06:24:10.085Z,16.25
2023-05-06T06:26:39.808Z,14.35
2023-05-06T06:29:08.584Z,13.10
2023-05-06T06:31:52.168Z,13.52
2023-05-06T06:34:22.068Z,15.38
2023-05-06T06:36:50.722Z,14.32
2023-05-06T06:39:17.738Z,15.38
2023-05-06T06:41:44.631Z,15.20
2023-05-06T06:44:13.825Z,15.23
2023-05-06T06:46:58.741Z,14.98
2023-05-06T06:49:28.943Z,14.13
2023-05-06T06:51:57.618Z,13.55
2023-05-06T06:54:27.830Z,15.05
2023-05-06T06:56:58.390Z,14.95
2023-05-06T06:59:25.224Z,16.35
2023-05-06T07:01:56.721Z,14.27
2023-05-06T07:04:25.714Z,15.05
2023-05-06T07:06:52.568Z,14.73
2023-05-06T07:09:19.378Z,16.42
2023-05-06T07:11:46.150Z,14.93
2023-05-06T07:14:13.373Z,16.73
2023-05-06T07:16:40.427Z,16.13
2023-05-06T07:19:07.283Z,14.93
2023-05-06T07:21:34.108Z,16.02
2023-05-06T07:24:01.137Z,15.73
2023-05-06T07:26:27.949Z,16.08
2023-05-06T07:28:54.776Z,13.90
2023-05-06T07:31:23.696Z,16.02
2023-05-06T07:33:52.627Z,18.23
2023-05-06T07:36:21.482Z,18.58
2023-05-06T07:38:48.245Z,18.58
2023-05-06T07:41:15.042Z,16.98
2023-05-06T07:43:42.812Z,17.85
2023-05-06T07:46:11.216Z,17.08
2023-05-06T07:48:38.118Z,18.92
2023-05-06T07:51:05.183Z,16.10
2023-05-06T07:53:38.547Z,16.48
2023-05-06T07:56:09.348Z,18.40
2023-05-06T07:58:36.253Z,18.52
2023-05-06T08:01:05.162Z,16.38
2023-05-06T08:03:39.029Z,16.52
2023-05-06T08:06:09.661Z,16.67
2023-05-06T08:08:41.953Z,17.13
2023-05-06T08:14:51.123Z,14.98
2023-05-06T08:17:23.935Z,18.08
2023-05-06T08:19:55.565Z,17.77
2023-05-06T08:22:22.719Z,20.17
2023-05-06T08:24:49.749Z,17.70
2023-05-06T08:27:16.753Z,19.92
2023-05-06T08:29:43.892Z,17.55
2023-05-06T08:32:11.049Z,18.35
2023-05-06T08:34:42.517Z,19.05
2023-05-06T08:37:10.600Z,17.25
2023-05-06T08:39:39.130Z,22.10
2023-05-06T08:42:07.776Z,17.75
2023-05-06T08:44:35.263Z,20.88
2023-05-06T08:47:02.664Z,19.55
2023-05-06T08:49:30.117Z,21.15
2023-05-06T08:51:58.114Z,25.13
2023-05-06T08:54:26.532Z,22.65
2023-05-06T08:56:57.582Z,23.25
2023-05-06T08:59:25.569Z,25.15
2023-05-06T09:01:54.729Z,24.15
2023-05-06T09:04:22.780Z,22.38
2023-05-06T09:06:54.174Z,23.65
2023-05-06T09:09:33.451Z,25.55
2023-05-06T09:12:04.314Z,22.52
2023-05-06T09:14:31.326Z,22.67
2023-05-06T09:16:58.485Z,20.90
2023-05-06T09:19:27.679Z,21.38
2023-05-06T09:21:57.369Z,21.15
2023-05-06T09:24:24.444Z,21.67
2023-05-06T09:26:55.242Z,24.60
2023-05-06T09:29:22.260Z,22.90
2023-05-06T09:31:52.098Z,21.52
2023-05-06T09:34:21.178Z,19.90
2023-05-06T09:36:48.119Z,22.00
2023-05-06T09:39:14.985Z,21.73
2023-05-06T09:41:46.081Z,23.23
2023-05-06T09:44:13.171Z,21.55
2023-05-06T09:46:41.237Z,20.55
2023-05-06T09:49:08.449Z,23.00
2023-05-06T09:51:36.231Z,21.10
2023-05-06T09:54:04.080Z,17.83
2023-05-06T09:56:31.191Z,17.35
2023-05-06T09:59:01.234Z,18.38
2023-05-06T10:01:36.911Z,22.23
2023-05-06T10:04:08.087Z,23.58
2023-05-06T10:06:39.336Z,22.23
2023-05-06T10:09:08.143Z,19.50
2023-05-06T10:11:36.031Z,21.27
2023-05-06T10:14:03.772Z,22.23
2023-05-06T10:16:33.589Z,23.67
2023-05-06T10:19:03.812Z,20.63
2023-05-06T10:21:34.476Z,20.90
2023-05-06T10:24:11.334Z,19.50
2023-05-06T10:26:39.517Z,18.00
2023-05-06T10:29:10.489Z,18.20
2023-05-06T10:31:48.253Z,21.25
2023-05-06T10:34:19.486Z,19.33
2023-05-06T10:36:48.753Z,17.60
2023-05-06T10:39:15.694Z,21.35
2023-05-06T10:41:57.249Z,18.38
2023-05-06T10:45:01.326Z,18.70
2023-05-06T10:48:04.088Z,19.27
2023-05-06T10:50:31.078Z,18.13
2023-05-06T10:53:02.835Z,18.52
2023-05-06T10:55:36.983Z,17.45
2023-05-06T10:58:24.680Z,17.38
2023-05-06T11:01:06.619Z,18.75
2023-05-06T11:03:36.794Z,16.58
2023-05-06T11:06:09.516Z,14.88
2023-05-06T11:08:48.196Z,15.57
2023-05-06T11:11:48.691Z,14.48
2023-05-06T11:14:29.537Z,15.02
2023-05-06T11:17:01.869Z,15.85
2023-05-06T11:19:38.282Z,16.95
2023-05-06T11:22:07.069Z,13.77
2023-05-06T11:37:35.936Z,14.55
2023-05-06T11:43:31.820Z,13.82
2023-05-06T11:46:02.089Z,14.13
2023-05-06T11:48:29.553Z,13.82
2023-05-06T11:50:56.665Z,13.82
2023-05-06T11:53:24.539Z,14.20
2023-05-06T11:55:54.822Z,13.73
2023-05-06T11:58:26.729Z,16.25
2023-05-06T12:01:01.308Z,13.93
2023-05-06T12:03:31.430Z,13.70
2023-05-06T12:05:59.361Z,13.35
2023-05-06T14:42:42.289Z,8.95
2023-05-06T14:45:09.617Z,12.02
2023-05-06T14:47:36.617Z,11.68
2023-05-06T14:50:03.461Z,11.20
2023-05-06T14:52:30.311Z,11.88
2023-05-06T14:54:57.169Z,11.75
2023-05-06T14:57:24.245Z,10.38
2023-05-06T14:59:51.993Z,12.13
2023-05-06T15:02:18.907Z,11.68
2023-05-06T15:04:46.148Z,11.55
2023-05-06T15:07:13.030Z,11.65
2023-05-06T15:09:40.323Z,11.95
2023-05-06T15:12:07.333Z,12.05
2023-05-06T15:14:34.187Z,14.98
2023-05-06T15:17:00.912Z,14.43
2023-05-06T15:19:27.673Z,11.48
2023-05-06T15:21:57.735Z,14.27
2023-05-06T15:24:24.683Z,15.10
2023-05-06T15:26:51.543Z,12.55
2023-05-06T15:29:18.336Z,19.08
2023-05-06T15:31:45.474Z,41.25
2023-05-06T15:34:12.875Z,12.43
2023-05-06T15:36:42.647Z,13.40
2023-05-06T15:39:09.550Z,14.23
2023-05-06T15:41:38.062Z,14.48
2023-05-06T15:44:06.067Z,12.55
2023-05-06T15:46:33.434Z,15.30
2023-05-06T15:51:30.834Z,13.23
2023-05-06T15:53:57.973Z,12.07
2023-05-06T15:56:26.946Z,14.00
2023-05-06T15:58:55.047Z,17.60
2023-05-06T16:01:31.610Z,13.10
2023-05-06T16:04:08.822Z,16.58
2023-05-06T16:06:35.926Z,14.05
2023-05-06T16:09:02.774Z,16.10
2023-05-06T16:11:29.788Z,13.05
2023-05-06T16:13:56.648Z,14.85
2023-05-06T16:16:23.587Z,16.45
2023-05-06T16:18:50.540Z,13.90
2023-05-06T16:21:17.451Z,14.57
2023-05-06T16:23:44.116Z,14.25
2023-05-06T16:26:11.184Z,13.30
2023-05-06T16:28:39.976Z,14.40
2023-05-06T16:31:07.319Z,13.85
2023-05-06T16:33:34.110Z,12.55
2023-05-06T16:36:00.925Z,12.23
2023-05-06T16:38:27.815Z,11.90
2023-05-06T16:40:54.640Z,15.70
2023-05-06T16:43:21.370Z,15.82
2023-05-06T16:45:48.212Z,14.77
2023-05-06T16:48:16.092Z,15.23
2023-05-06T16:50:42.901Z,12.40
2023-05-06T16:53:10.250Z,14.90
2023-05-06T16:55:38.963Z,15.85
2023-05-06T16:58:05.761Z,13.88
2023-05-06T17:00:32.815Z,14.65
2023-05-06T17:02:59.724Z,9.57
2023-05-06T17:05:27.977Z,11.80
2023-05-06T17:07:54.733Z,15.18
2023-05-06T17:10:22.045Z,13.40
2023-05-06T17:12:48.837Z,14.57
2023-05-06T17:15:16.092Z,10.30
2023-05-06T17:17:42.946Z,13.95
2023-05-06T17:20:10.122Z,12.90
2023-05-06T17:22:37.398Z,8.27
2023-05-06T17:25:04.455Z,13.25
2023-05-06T17:27:31.328Z,12.18
2023-05-06T17:30:00.568Z,11.30
2023-05-06T17:32:27.476Z,9.48
2023-05-06T17:34:54.308Z,10.50
2023-05-06T17:37:20.994Z,9.95
2023-05-06T17:39:47.810Z,11.52
2023-05-06T17:42:14.581Z,9.30
2023-05-06T17:44:42.763Z,10.02
2023-05-06T17:47:10.787Z,8.02
2023-05-06T17:49:38.115Z,9.82
2023-05-06T17:52:05.162Z,10.50
2023-05-06T17:54:36.442Z,9.52
2023-05-06T17:57:03.670Z,9.75
2023-05-06T17:59:30.563Z,10.65
2023-05-06T18:01:57.504Z,10.25
2023-05-06T18:04:24.451Z,10.23
2023-05-06T18:06:51.377Z,10.65
2023-05-06T18:09:19.357Z,10.43
2023-05-06T18:11:46.241Z,8.40
2023-05-06T18:14:13.232Z,10.50
2023-05-06T18:16:40.150Z,10.13
2023-05-06T18:19:07.038Z,10.75
2023-05-06T18:21:37.044Z,9.65
2023-05-06T18:24:15.243Z,8.95
2023-05-06T18:26:45.718Z,9.02
2023-05-06T18:29:13.365Z,9.27
2023-05-06T18:31:40.220Z,9.98
2023-05-06T18:34:07.155Z,10.57
2023-05-06T18:36:36.368Z,9.48
2023-05-06T18:39:04.548Z,8.65
2023-05-06T18:41:31.437Z,9.77
2023-05-06T18:43:58.241Z,10.05
2023-05-06T18:46:26.984Z,10.63
2023-05-06T18:48:53.776Z,11.10
2023-05-06T18:51:21.450Z,7.55
2023-05-06T18:53:48.278Z,9.52
2023-05-06T18:56:17.615Z,10.02
2023-05-06T18:58:44.784Z,11.18
2023-05-06T19:01:12.057Z,9.70
2023-05-06T19:03:39.046Z,11.63
2023-05-06T19:06:10.082Z,12.38
2023-05-06T19:08:37.361Z,12.15
2023-05-06T19:11:04.573Z,12.82
2023-05-06T19:13:31.630Z,12.05
2023-05-06T19:16:02.156Z,12.65
2023-05-06T19:18:30.505Z,12.27
2023-05-06T19:20:57.500Z,11.40
2023-05-06T19:23:27.082Z,13.88
2023-05-06T19:25:57.107Z,14.35
2023-05-06T19:28:24.061Z,16.20
2023-05-06T19:31:00.008Z,14.38
2023-05-06T19:33:27.037Z,15.73
2023-05-06T19:35:54.076Z,15.55
2023-05-06T19:38:21.296Z,15.63
2023-05-06T19:40:48.162Z,16.00
2023-05-06T19:43:15.009Z,16.45
2023-05-06T19:45:42.034Z,15.38
2023-05-06T19:48:08.976Z,16.23
2023-05-06T19:50:36.621Z,17.35
2023-05-06T19:53:03.849Z,18.20
2023-05-06T19:55:31.867Z,16.88
2023-05-06T19:58:02.351Z,17.00
2023-05-06T20:00:30.352Z,16.45
2023-05-06T20:02:59.465Z,16.67
2023-05-06T20:05:32.418Z,16.67
2023-05-06T20:08:04.686Z,15.45
2023-05-06T20:10:31.898Z,15.85
2023-05-06T20:12:58.924Z,15.65
2023-05-06T20:15:29.134Z,16.15
2023-05-06T20:17:59.077Z,16.33
2023-05-06T20:20:36.140Z,14.20
2023-05-06T20:23:04.572Z,14.65
2023-05-06T20:25:32.009Z,15.00
2023-05-06T20:28:01.464Z,14.82
2023-05-06T20:30:30.962Z,12.93
2023-05-06T20:36:06.798Z,13.85
2023-05-06T20:38:55.302Z,14.90
2023-05-06T20:41:22.605Z,15.50
2023-05-06T20:43:54.003Z,15.32
2023-05-06T20:46:35.353Z,13.32
2023-05-06T20:49:06.344Z,13.82
2023-05-06T20:51:59.253Z,14.90
2023-05-06T20:54:36.161Z,14.18
2023-05-06T20:59:36.054Z,12.90
2023-05-06T21:02:04.063Z,14.50
2023-05-06T21:04:34.274Z,14.50
2023-05-06T21:09:53.088Z,15.93
2023-05-06T21:12:24.705Z,16.23
2023-05-06T21:14:57.186Z,16.08
2023-05-06T21:17:24.163Z,15.40
2023-05-06T21:19:54.073Z,16.98
2023-05-06T21:22:25.698Z,17.88
2023-05-06T21:24:52.682Z,17.02
2023-05-06T21:27:22.361Z,18.00
2023-05-06T21:29:51.290Z,18.85
2023-05-06T21:32:18.135Z,18.70
2023-05-06T21:34:46.745Z,18.05
2023-05-06T21:37:13.513Z,18.13
2023-05-06T21:39:40.279Z,16.98
2023-05-06T21:42:10.841Z,13.77
2023-05-06T21:47:23.498Z,15.70
2023-05-06T21:49:52.171Z,16.30
2023-05-06T21:52:18.937Z,17.50
2023-05-06T21:54:49.006Z,15.55
2023-05-06T21:57:16.563Z,17.40
